Terminal Aerodrome Forecast
Issued by NWS

Home | Current Version | Previous Version | Text Only | Print | Product List | Glossary On
Versions: 1 2 3 4 5 6 7 8 9 10 11 12 13 14
000
FTUS44 KLIX 100500
TAFMSY
TAF
KMSY 100525Z 1006/1106 20005KT P6SM BKN250
     FM101500 26006KT P6SM VCSH BKN030 PROB30 1015/1019 VRB15KT 2SM
      TSRA BKN030CB
     FM101900 28007KT P6SM VCSH BKN035
      TEMPO 1019/1023 VRB15G25KT 1SM TSRA BR BKN030CB
     FM110000 25003KT P6SM BKN200=

USA.gov is the U.S. government's official web portal to all federal, state and local government web resources and services.